Time;durP1;ratioP1;P1;durP2;ratioP2;P2;SDS_P1;SDS_P2;PMS_P1;PMS_P2;Temp;Humidity;BMP_temperature;BMP_pressure;BME280_temperature;BME280_humidity;BME280_pressure;Samples;Min_cycle;Max_cycle;Signal;HPM_P1;HPM_P2
2022/01/12 00:00:25;;;;;;;;;11.75;11.50;;;;;5.45;77.63;101884.88;5097203;27;45420;-72
2022/01/12 00:02:51;;;;;;;;;20.25;20.00;;;;;5.46;77.10;101879.81;5094899;27;45652;-72
2022/01/12 00:05:18;;;;;;;;;19.25;16.75;;;;;5.53;76.55;101882.06;5096496;27;45554;-72
2022/01/12 00:07:46;;;;;;;;;17.00;15.00;;;;;5.50;76.34;101868.88;5095834;27;45576;-72
2022/01/12 00:10:11;;;;;;;;;14.00;12.75;;;;;5.54;76.50;101868.31;5095631;27;45802;-72
2022/01/12 00:12:37;;;;;;;;;15.00;14.75;;;;;5.57;76.55;101865.03;5096858;27;45449;-72
2022/01/12 00:15:03;;;;;;;;;16.50;15.00;;;;;5.80;76.34;101889.13;5096624;27;45538;-72
2022/01/12 00:17:28;;;;;;;;;13.00;12.00;;;;;5.87;76.21;101888.72;5096553;27;45448;-72
2022/01/12 00:19:54;;;;;;;;;18.25;17.25;;;;;5.89;76.46;101884.56;5096711;27;45338;-72
2022/01/12 00:22:19;;;;;;;;;19.00;16.00;;;;;6.00;76.11;101872.38;5096870;27;45365;-72
2022/01/12 00:33:10;;;;;;;;;24.00;19.25;;;;;6.16;76.04;101876.13;5096462;27;45491;-71
2022/01/12 00:35:47;;;;;;;;;12.75;12.00;;;;;6.21;75.97;101878.16;5093766;27;45564;-72
2022/01/12 00:38:14;;;;;;;;;23.00;18.00;;;;;6.24;75.23;101875.78;5096429;27;45423;-72
2022/01/12 00:40:47;;;;;;;;;13.00;12.00;;;;;6.20;75.49;101874.66;5094994;27;45409;-71
2022/01/12 00:43:13;;;;;;;;;22.00;18.75;;;;;6.22;75.39;101872.19;5096821;27;46394;-72
2022/01/12 00:45:43;;;;;;;;;34.00;28.75;;;;;6.23;75.76;101876.56;5096039;27;45626;-71
2022/01/12 00:48:09;;;;;;;;;45.50;36.75;;;;;6.13;75.39;101856.88;5096120;27;45461;-72
2022/01/12 00:50:36;;;;;;;;;23.75;17.25;;;;;6.28;75.75;101875.19;5093513;27;45534;-72
2022/01/12 00:53:03;;;;;;;;;12.00;10.50;;;;;6.18;75.80;101842.53;5096468;27;45404;-72
2022/01/12 00:55:30;;;;;;;;;21.00;17.25;;;;;6.31;75.63;101863.31;5094604;27;45515;-72
2022/01/12 00:57:57;;;;;;;;;19.25;17.25;;;;;6.31;75.49;101870.22;5093454;27;45246;-72
2022/01/12 01:00:24;;;;;;;;;29.75;22.00;;;;;6.30;75.24;101876.19;5096231;27;45430;-72
2022/01/12 01:02:51;;;;;;;;;35.75;32.00;;;;;6.30;75.33;101874.50;5096349;27;46678;-71
2022/01/12 01:05:20;;;;;;;;;18.25;17.25;;;;;6.30;75.31;101874.50;5093754;27;46029;-72
2022/01/12 01:07:46;;;;;;;;;32.00;28.50;;;;;6.28;74.54;101873.47;5096183;27;45539;-72
2022/01/12 01:10:16;;;;;;;;;25.00;22.00;;;;;6.05;74.36;101850.25;5095945;27;45780;-72
2022/01/12 01:12:45;;;;;;;;;32.25;29.00;;;;;6.10;74.33;101877.41;5097844;27;45427;-72
2022/01/12 01:15:13;;;;;;;;;18.50;17.25;;;;;6.07;74.81;101875.53;5099485;27;45479;-72
2022/01/12 01:25:50;;;;;;;;;12.75;12.50;;;;;5.90;74.80;101853.53;5098417;27;45309;-72
2022/01/12 01:28:17;;;;;;;;;21.00;17.00;;;;;5.95;74.87;101878.16;5096911;27;45342;-72
2022/01/12 01:30:44;;;;;;;;;14.25;13.00;;;;;5.98;75.42;101877.47;5099683;27;45443;-72
2022/01/12 01:33:14;;;;;;;;;22.75;15.75;;;;;6.01;75.41;101879.34;5099588;27;45575;-72
2022/01/12 01:35:44;;;;;;;;;13.50;10.75;;;;;5.97;75.03;101876.56;5096968;27;45503;-72
2022/01/12 01:38:09;;;;;;;;;6.00;6.00;;;;;5.93;75.21;101871.03;5099339;27;45267;-72
2022/01/12 01:40:37;;;;;;;;;7.75;6.25;;;;;5.88;75.68;101873.28;5097928;27;45392;-72
2022/01/12 01:53:48;;;;;;;;;11.25;10.00;;;;;5.68;76.74;101869.28;5098292;27;45333;-72
2022/01/12 01:56:14;;;;;;;;;7.75;7.50;;;;;5.65;76.65;101878.53;5099064;27;46759;-72
2022/01/12 01:58:40;;;;;;;;;10.25;9.00;;;;;5.47;76.60;101858.31;5098853;27;45526;-72
2022/01/12 02:01:06;;;;;;;;;11.25;10.25;;;;;5.60;77.15;101878.22;5099126;27;45507;-72
2022/01/12 02:03:32;;;;;;;;;13.25;11.00;;;;;5.56;76.97;101871.91;5097760;27;45663;-72
2022/01/12 02:06:00;;;;;;;;;11.25;10.00;;;;;5.47;77.55;101853.13;5098790;27;45501;-72
2022/01/12 02:08:27;;;;;;;;;11.75;11.00;;;;;5.67;77.67;101876.97;5098848;27;45439;-72
2022/01/12 02:10:57;;;;;;;;;12.75;11.25;;;;;5.81;77.53;101886.63;5098706;27;45510;-72
2022/01/12 02:13:26;;;;;;;;;14.75;12.00;;;;;5.85;77.73;101879.94;5097857;27;45564;-72
2022/01/12 02:15:52;;;;;;;;;10.75;10.25;;;;;5.86;77.21;101876.56;5098608;27;45212;-72
2022/01/12 02:18:33;;;;;;;;;10.50;10.50;;;;;5.83;76.93;101886.72;5099092;27;45582;-72
2022/01/12 02:40:35;;;;;;;;;13.25;12.00;;;;;5.08;77.49;101888.31;5096819;27;45422;-72
2022/01/12 02:53:43;;;;;;;;;17.25;15.50;;;;;4.69;79.34;101892.31;5097999;27;45431;-72
2022/01/12 02:56:16;;;;;;;;;27.25;24.50;;;;;4.65;80.07;101902.31;5098586;27;45472;-72
2022/01/12 02:58:43;;;;;;;;;29.00;25.50;;;;;4.55;79.79;101903.31;5099475;27;45254;-72
2022/01/12 03:03:51;;;;;;;;;16.00;13.75;;;;;4.26;79.66;101870.03;5100013;27;45540;-72
2022/01/12 03:06:20;;;;;;;;;12.75;11.50;;;;;4.27;80.30;101892.56;5100176;27;45352;-72
2022/01/12 03:08:47;;;;;;;;;15.00;12.00;;;;;4.32;80.12;101905.06;5099636;27;46145;-72
2022/01/12 03:11:16;;;;;;;;;15.00;13.25;;;;;4.28;80.36;101905.63;5099489;27;45456;-72
2022/01/12 03:13:42;;;;;;;;;22.00;19.00;;;;;4.25;80.95;101910.53;5099144;27;45481;-72
2022/01/12 03:16:16;;;;;;;;;19.75;16.25;;;;;4.17;80.67;101907.34;5099387;27;45464;-72
2022/01/12 03:18:43;;;;;;;;;15.50;14.75;;;;;4.15;80.25;101908.91;5099187;27;46200;-72
2022/01/12 03:21:11;;;;;;;;;12.00;11.00;;;;;4.12;80.59;101913.88;5099138;27;45514;-72
2022/01/12 03:23:37;;;;;;;;;11.75;11.00;;;;;4.11;80.57;101913.75;5099429;27;45466;-72
2022/01/12 03:26:04;;;;;;;;;17.50;15.50;;;;;4.14;80.85;101916.59;5099456;27;45210;-72
2022/01/12 03:28:30;;;;;;;;;10.25;10.00;;;;;4.28;80.52;101933.19;5098858;27;46183;-72
2022/01/12 03:31:06;;;;;;;;;13.25;13.00;;;;;4.45;80.89;101926.69;5099098;27;45429;-72
2022/01/12 03:33:51;;;;;;;;;10.25;10.00;;;;;4.67;80.19;101935.31;5097796;27;45425;-72
2022/01/12 03:36:27;;;;;;;;;16.00;13.75;;;;;4.75;79.55;101920.34;5099548;27;45450;-72
2022/01/12 03:38:55;;;;;;;;;12.50;11.00;;;;;4.91;79.33;101928.47;5097340;27;46475;-72
2022/01/12 03:41:21;;;;;;;;;17.75;14.00;;;;;5.08;79.03;101932.34;5099333;27;45502;-72
2022/01/12 03:43:47;;;;;;;;;21.25;17.00;;;;;5.18;78.67;101928.75;5099337;27;45301;-72
2022/01/12 03:46:14;;;;;;;;;19.75;14.00;;;;;5.27;78.51;101928.50;5099207;27;45447;-72
2022/01/12 03:48:41;;;;;;;;;10.00;10.00;;;;;5.28;77.71;101925.16;5098621;27;47371;-72
2022/01/12 03:51:06;;;;;;;;;11.50;10.25;;;;;5.42;77.46;101944.28;5098685;27;45407;-72
2022/01/12 03:53:32;;;;;;;;;11.50;10.75;;;;;5.47;77.49;101941.25;5098929;27;45400;-72
2022/01/12 03:55:57;;;;;;;;;11.00;11.00;;;;;5.50;77.65;101935.38;5099040;27;45506;-72
2022/01/12 03:58:23;;;;;;;;;10.00;10.00;;;;;5.54;77.48;101950.38;5097333;27;46252;-72
2022/01/12 04:00:48;;;;;;;;;10.50;10.25;;;;;5.48;77.07;101936.97;5099001;27;45389;-72
2022/01/12 04:03:15;;;;;;;;;12.50;10.25;;;;;5.47;76.61;101936.06;5098886;27;45451;-72
2022/01/12 04:08:25;;;;;;;;;12.00;11.00;;;;;5.31;77.14;101943.50;5098438;27;45479;-72
2022/01/12 04:10:54;;;;;;;;;7.75;7.75;;;;;5.07;77.03;101927.03;5098725;27;45393;-72
2022/01/12 04:13:22;;;;;;;;;9.50;7.75;;;;;4.95;77.73;101933.13;5099052;27;45685;-72
2022/01/12 04:15:53;;;;;;;;;15.50;12.00;;;;;4.96;78.33;101953.03;5098574;27;45377;-72
2022/01/12 04:18:18;;;;;;;;;9.50;9.00;;;;;4.85;78.56;101942.66;5098244;27;45266;-72
2022/01/12 04:20:46;;;;;;;;;12.00;10.00;;;;;4.83;78.75;101952.00;5098226;27;45451;-72
2022/01/12 04:23:17;;;;;;;;;13.25;11.00;;;;;4.74;79.83;101966.06;5098374;27;45432;-72
2022/01/12 04:25:48;;;;;;;;;11.50;10.00;;;;;4.61;79.66;101949.47;5098575;27;45369;-72
2022/01/12 04:28:15;;;;;;;;;12.00;10.00;;;;;4.68;80.03;101967.28;5097950;27;46035;-72
2022/01/12 04:30:42;;;;;;;;;10.75;10.25;;;;;4.69;80.23;101969.06;5098092;27;45515;-72
2022/01/12 04:33:08;;;;;;;;;10.25;9.50;;;;;4.71;80.30;101970.97;5098205;27;45494;-71
2022/01/12 04:35:37;;;;;;;;;8.25;6.25;;;;;4.78;79.59;101974.97;5096978;27;45424;-72
2022/01/12 04:38:03;;;;;;;;;10.00;8.75;;;;;4.82;79.91;101974.41;5097777;27;45515;-72
2022/01/12 04:40:29;;;;;;;;;12.25;11.25;;;;;4.81;79.67;101982.94;5097854;27;45478;-72
2022/01/12 04:42:55;;;;;;;;;20.75;18.75;;;;;4.68;79.21;101964.69;5098407;27;45351;-72
2022/01/12 04:50:19;;;;;;;;;12.25;12.25;;;;;4.50;80.04;101979.72;5096840;27;45478;-72
2022/01/12 04:52:45;;;;;;;;;14.00;12.50;;;;;4.40;80.24;101975.50;5096584;27;45407;-72
2022/01/12 04:55:10;;;;;;;;;12.25;12.00;;;;;4.29;80.23;101977.25;5098167;27;45398;-72
2022/01/12 04:57:36;;;;;;;;;101.67;85.67;;;;;4.24;80.17;101985.41;5097824;27;45457;-72
2022/01/12 05:00:08;;;;;;;;;87.75;65.50;;;;;4.04;80.57;101953.75;5097712;27;45446;-72
2022/01/12 05:13:33;;;;;;;;;11.25;9.75;;;;;3.93;81.42;101993.34;5097712;27;45458;-72
2022/01/12 05:16:00;;;;;;;;;90.25;67.25;;;;;3.75;80.46;101969.53;5097887;27;45418;-72
2022/01/12 05:18:27;;;;;;;;;11.00;10.00;;;;;3.79;80.61;101984.50;5098008;27;45588;-72
2022/01/12 05:20:52;;;;;;;;;23.00;20.25;;;;;3.79;81.45;101987.06;5097879;27;45467;-72
2022/01/12 05:23:18;;;;;;;;;44.75;33.75;;;;;3.59;81.02;101957.94;5097374;27;45397;-72
2022/01/12 05:25:46;;;;;;;;;50.00;40.50;;;;;3.74;81.37;101986.72;5096463;27;45470;-72
2022/01/12 05:28:13;;;;;;;;;37.75;31.75;;;;;3.72;81.38;101990.88;5097229;27;45280;-72
2022/01/12 05:30:39;;;;;;;;;16.25;14.25;;;;;3.70;81.23;101991.50;5097443;27;45306;-72
2022/01/12 05:33:05;;;;;;;;;17.25;14.50;;;;;3.68;81.48;101986.22;5097505;27;45475;-72
2022/01/12 05:35:33;;;;;;;;;17.25;14.25;;;;;3.67;81.69;101975.75;5097662;27;45420;-72
2022/01/12 05:38:04;;;;;;;;;18.25;16.00;;;;;3.57;81.38;101964.66;5097587;27;46257;-72
2022/01/12 05:40:30;;;;;;;;;14.50;12.50;;;;;3.70;80.97;101987.25;5097157;27;45334;-72
2022/01/12 05:42:59;;;;;;;;;16.75;12.75;;;;;3.71;80.96;101981.28;5097591;27;45527;-72
2022/01/12 05:45:26;;;;;;;;;22.00;17.75;;;;;3.57;80.61;101966.34;5097406;27;45591;-72
2022/01/12 05:50:19;;;;;;;;;46.25;42.00;;;;;3.55;81.39;101994.66;5097030;27;45376;-71
2022/01/12 05:52:45;;;;;;;;;20.75;15.75;;;;;3.57;81.68;101990.50;5097148;27;45361;-71
2022/01/12 05:55:11;;;;;;;;;18.50;14.25;;;;;3.51;81.33;101978.78;5095856;27;45342;-71
2022/01/12 05:57:38;;;;;;;;;14.50;10.00;;;;;3.60;81.54;102000.19;5096832;27;45504;-71
2022/01/12 06:00:07;;;;;;;;;11.00;9.00;;;;;3.59;81.26;102006.16;5096950;27;45372;-71
2022/01/12 06:02:32;;;;;;;;;13.25;10.75;;;;;3.57;81.45;102013.75;5100657;27;45470;-71
2022/01/12 06:04:58;;;;;;;;;11.75;9.00;;;;;3.46;81.78;101987.81;5101009;27;45213;-72
2022/01/12 06:07:23;;;;;;;;;9.25;9.00;;;;;3.60;81.88;102010.50;5099170;27;45433;-71
2022/01/12 06:09:49;;;;;;;;;8.75;8.75;;;;;3.70;82.29;102019.94;5099170;27;45361;-71
2022/01/12 06:12:15;;;;;;;;;13.00;10.00;;;;;3.67;82.25;102002.50;5100636;27;45475;-71
2022/01/12 06:14:43;;;;;;;;;10.50;9.00;;;;;3.70;82.76;102005.34;5100813;27;45705;-71
2022/01/12 06:17:10;;;;;;;;;13.50;9.25;;;;;3.77;81.98;102014.47;5100246;27;46068;-72
2022/01/12 06:19:37;;;;;;;;;14.00;10.00;;;;;3.72;82.41;102015.78;5100226;27;45473;-71
2022/01/12 06:22:03;;;;;;;;;10.50;9.00;;;;;3.66;81.62;102025.63;5100453;27;45391;-72
2022/01/12 06:24:31;;;;;;;;;10.75;8.50;;;;;3.59;81.92;102031.97;5100921;27;45599;-71
2022/01/12 06:26:58;;;;;;;;;8.50;6.75;;;;;3.49;82.16;102029.44;5100553;27;45495;-71
2022/01/12 06:29:39;;;;;;;;;9.50;9.50;;;;;3.39;82.65;102020.00;5100033;27;45387;-72
2022/01/12 06:32:06;;;;;;;;;10.75;10.75;;;;;3.42;82.17;102027.09;5100222;27;45317;-71
2022/01/12 06:34:31;;;;;;;;;13.00;12.00;;;;;3.33;82.21;102035.00;5099018;27;46013;-71
2022/01/12 06:36:57;;;;;;;;;13.25;12.25;;;;;3.32;82.10;102036.69;5100268;27;46111;-71
2022/01/12 06:39:23;;;;;;;;;9.25;8.50;;;;;3.26;81.59;102036.16;5100116;27;45383;-71
2022/01/12 06:41:51;;;;;;;;;11.75;10.25;;;;;3.23;81.82;102041.09;5100239;27;45357;-71
2022/01/12 06:44:20;;;;;;;;;10.00;9.25;;;;;3.15;82.00;102030.13;5100264;27;45198;-71
2022/01/12 06:46:47;;;;;;;;;13.00;12.25;;;;;3.27;82.14;102050.91;5099707;27;45281;-71
2022/01/12 06:49:15;;;;;;;;;21.25;19.25;;;;;3.31;82.66;102055.53;5099574;27;45418;-71
2022/01/12 06:51:42;;;;;;;;;21.00;17.25;;;;;3.27;81.94;102040.56;5098442;27;45511;-71
2022/01/12 06:54:08;;;;;;;;;10.25;5.50;;;;;3.39;81.67;102057.06;5099321;27;45371;-71
2022/01/12 06:56:33;;;;;;;;;13.25;10.75;;;;;3.39;80.48;102063.94;5099534;27;45479;-71
2022/01/12 06:58:59;;;;;;;;;12.75;9.75;;;;;3.30;80.21;102051.16;5100173;27;45271;-71
2022/01/12 07:01:25;;;;;;;;;12.50;12.25;;;;;3.36;80.36;102062.00;5099804;27;45290;-71
2022/01/12 07:03:51;;;;;;;;;15.75;13.25;;;;;3.31;80.34;102054.66;5099898;27;45227;-71
2022/01/12 07:06:18;;;;;;;;;10.75;9.00;;;;;3.33;80.33;102055.69;5099564;27;46204;-71
2022/01/12 07:08:44;;;;;;;;;11.25;11.00;;;;;3.26;80.36;102053.34;5099552;27;45732;-71
2022/01/12 07:11:09;;;;;;;;;16.25;10.50;;;;;3.31;80.69;102072.72;5099502;27;45382;-71
2022/01/12 07:13:35;;;;;;;;;6.00;5.00;;;;;3.24;80.34;102071.28;5098915;27;45425;-71
2022/01/12 07:16:01;;;;;;;;;9.00;8.75;;;;;3.10;80.83;102061.47;5099759;27;45989;-71
2022/01/12 07:18:29;;;;;;;;;15.00;13.00;;;;;3.14;81.15;102087.72;5099325;27;45210;-71
2022/01/12 07:20:55;;;;;;;;;16.50;13.50;;;;;3.07;80.89;102081.91;5097950;27;45363;-71
2022/01/12 07:23:21;;;;;;;;;9.75;9.75;;;;;2.95;81.19;102085.22;5099418;27;45625;-71
2022/01/12 07:25:46;;;;;;;;;13.00;9.75;;;;;2.97;81.38;102087.97;5099033;27;46114;-71
2022/01/12 07:28:12;;;;;;;;;13.75;13.00;;;;;2.92;81.13;102094.38;5099122;27;45463;-71
2022/01/12 07:30:37;;;;;;;;;12.50;10.00;;;;;2.89;81.01;102097.63;5099306;27;45309;-71
2022/01/12 07:33:03;;;;;;;;;13.50;12.50;;;;;2.89;81.36;102086.41;5099750;27;45482;-71
2022/01/12 07:35:29;;;;;;;;;14.50;12.75;;;;;2.76;81.11;102074.09;5098700;27;46552;-71
2022/01/12 07:37:54;;;;;;;;;13.00;11.50;;;;;2.72;81.26;102078.09;5098985;27;45561;-71
2022/01/12 07:40:20;;;;;;;;;20.50;18.50;;;;;2.77;81.32;102088.84;5099252;27;45559;-71
2022/01/12 07:42:46;;;;;;;;;13.75;12.00;;;;;2.68;81.57;102080.28;5097966;27;45314;-71
2022/01/12 07:45:12;;;;;;;;;44.75;36.00;;;;;2.66;81.14;102081.84;5098743;27;46013;-71
2022/01/12 07:47:38;;;;;;;;;88.25;68.00;;;;;2.72;80.89;102093.56;5098794;27;45351;-71
2022/01/12 07:50:06;;;;;;;;;149.67;98.33;;;;;2.74;80.97;102085.97;5099205;27;45273;-71
2022/01/12 07:52:33;;;;;;;;;35.25;25.50;;;;;2.75;81.27;102096.44;5098029;27;45437;-71
2022/01/12 07:54:59;;;;;;;;;24.00;21.00;;;;;2.61;81.73;102076.28;5098643;27;45555;-71
2022/01/12 07:57:25;;;;;;;;;43.75;32.75;;;;;2.77;81.71;102096.56;5098777;27;45512;-70
2022/01/12 07:59:51;;;;;;;;;72.50;56.25;;;;;2.71;82.06;102090.88;5097125;27;45488;-70
2022/01/12 08:02:16;;;;;;;;;78.00;59.25;;;;;2.82;81.81;102107.28;5098856;27;45499;-71
2022/01/12 08:04:42;;;;;;;;;32.50;27.00;;;;;2.86;82.14;102099.03;5098575;27;45453;-71
2022/01/12 08:07:10;;;;;;;;;21.75;18.00;;;;;2.87;81.83;102091.44;5098538;27;45445;-71
2022/01/12 08:09:37;;;;;;;;;62.75;48.00;;;;;2.82;82.40;102076.31;5098659;27;45497;-70
2022/01/12 08:12:03;;;;;;;;;51.00;44.25;;;;;2.91;82.35;102103.81;5098821;27;45482;-71
2022/01/12 08:14:29;;;;;;;;;38.00;28.75;;;;;2.88;81.90;102106.13;5098239;27;46180;-71
2022/01/12 08:16:54;;;;;;;;;75.75;59.25;;;;;3.00;82.19;102114.00;5098298;27;45433;-71
2022/01/12 08:19:21;;;;;;;;;63.50;52.50;;;;;3.03;81.44;102113.41;5097075;27;45510;-71
2022/01/12 08:21:47;;;;;;;;;32.00;27.75;;;;;3.05;81.78;102114.44;5098353;27;45416;-71
2022/01/12 08:24:12;;;;;;;;;28.50;25.00;;;;;2.97;81.28;102108.59;5097032;27;46099;-70
2022/01/12 08:26:39;;;;;;;;;43.25;34.25;;;;;3.10;80.38;102119.19;5098236;27;45471;-70
2022/01/12 08:29:05;;;;;;;;;64.00;51.00;;;;;3.16;80.32;102122.31;5098547;27;45599;-70
2022/01/12 08:31:31;;;;;;;;;38.25;37.25;;;;;3.24;80.47;102128.09;5098406;27;45424;-70
2022/01/12 08:33:57;;;;;;;;;71.75;59.00;;;;;3.24;79.93;102116.88;5095081;27;46393;-70
2022/01/12 08:36:22;;;;;;;;;134.00;110.50;;;;;3.30;79.55;102117.41;5096254;27;45496;-71
2022/01/12 08:38:48;;;;;;;;;37.00;32.50;;;;;3.45;79.72;102133.28;5096526;27;45419;-71
2022/01/12 08:41:14;;;;;;;;;22.25;22.00;;;;;3.38;79.42;102112.13;5095343;27;45468;-71
2022/01/12 08:43:40;;;;;;;;;24.75;24.50;;;;;3.49;78.96;102125.91;5096205;27;45867;-71
2022/01/12 08:46:06;;;;;;;;;46.50;40.75;;;;;3.68;77.06;102142.94;5096174;27;45514;-70
2022/01/12 08:48:31;;;;;;;;;13.50;11.75;;;;;3.64;77.39;102103.06;5094787;27;45452;-70
2022/01/12 08:50:57;;;;;;;;;31.00;26.50;;;;;3.79;76.56;102122.38;5096148;27;45550;-71
2022/01/12 08:53:23;;;;;;;;;45.25;39.50;;;;;3.97;76.97;102128.16;5095775;27;45474;-70
2022/01/12 08:55:48;;;;;;;;;22.00;19.25;;;;;4.15;76.54;102121.00;5094787;27;45491;-70
2022/01/12 08:58:14;;;;;;;;;54.50;44.50;;;;;4.46;76.73;102126.06;5096056;27;45396;-71
2022/01/12 09:00:39;;;;;;;;;58.25;46.25;;;;;4.87;76.10;102115.47;5097832;27;45515;-70
2022/01/12 09:03:05;;;;;;;;;22.25;19.25;;;;;5.14;74.88;102119.31;5097807;27;45944;-71
2022/01/12 09:05:32;;;;;;;;;23.25;22.00;;;;;5.44;74.21;102116.34;5096363;27;45658;-71
2022/01/12 09:07:59;;;;;;;;;25.00;21.50;;;;;5.56;73.90;102122.47;5097628;27;45523;-71
2022/01/12 09:10:25;;;;;;;;;15.25;11.50;;;;;5.50;73.48;102120.31;5096458;27;45491;-71
2022/01/12 09:12:50;;;;;;;;;16.50;14.00;;;;;5.35;74.10;102122.66;5097077;27;46158;-71
2022/01/12 09:15:16;;;;;;;;;41.00;35.00;;;;;5.27;74.38;102123.75;5096188;27;45464;-71
2022/01/12 09:17:43;;;;;;;;;29.25;23.50;;;;;5.27;74.53;102125.44;5097107;27;45394;-71
2022/01/12 09:20:10;;;;;;;;;36.25;32.75;;;;;5.23;74.35;102120.78;5097864;27;45421;-71
2022/01/12 09:22:37;;;;;;;;;25.25;22.75;;;;;5.20;74.70;102113.69;5097665;27;46068;-72
2022/01/12 09:25:05;;;;;;;;;20.25;20.00;;;;;5.40;74.98;102120.41;5090651;27;45487;-73
2022/01/12 09:27:31;;;;;;;;;17.50;15.25;;;;;5.41;74.72;102117.00;5088150;27;45438;-71
2022/01/12 09:29:57;;;;;;;;;17.50;16.00;;;;;5.53;74.34;102124.81;5074269;27;45477;-70
2022/01/12 09:32:22;;;;;;;;;15.25;12.25;;;;;7.49;72.59;102118.94;5074360;27;46476;-72
2022/01/12 09:34:48;;;;;;;;;18.75;17.50;;;;;10.13;63.89;102104.06;5076680;27;45381;-71
2022/01/12 09:37:13;;;;;;;;;21.00;19.50;;;;;12.04;58.85;102103.72;5080076;27;45320;-72
2022/01/12 09:39:39;;;;;;;;;18.75;16.50;;;;;13.51;54.08;102098.22;5080829;28;45382;-71
2022/01/12 09:42:05;;;;;;;;;22.75;21.75;;;;;14.97;49.74;102079.47;5078935;28;45306;-71
2022/01/12 09:44:44;;;;;;;;;14.50;12.00;;;;;16.19;48.30;102085.38;5080323;27;45503;-71
2022/01/12 09:47:09;;;;;;;;;15.25;14.50;;;;;16.87;46.09;102092.72;5080796;27;45451;-74
2022/01/12 09:49:35;;;;;;;;;18.75;15.50;;;;;17.27;43.64;102078.03;5080580;27;45228;-74
2022/01/12 09:52:02;;;;;;;;;23.50;22.50;;;;;17.88;43.06;102070.78;5085356;27;45466;-74
2022/01/12 09:54:28;;;;;;;;;18.75;17.75;;;;;18.26;40.87;102073.41;5099589;27;45381;-77
2022/01/12 09:56:54;;;;;;;;;19.00;18.50;;;;;18.54;41.77;102071.38;5116114;27;45454;-75
2022/01/12 09:59:22;;;;;;;;;18.25;16.75;;;;;18.86;41.09;102065.06;5100391;27;45434;-74
2022/01/12 10:01:48;;;;;;;;;53.50;43.50;;;;;19.30;39.29;102089.72;5100161;27;45542;-76
2022/01/12 10:04:19;;;;;;;;;28.00;23.75;;;;;19.51;37.86;102090.09;5099040;27;45480;-76
2022/01/12 10:06:48;;;;;;;;;21.50;20.50;;;;;19.65;38.22;102087.69;5100422;27;45381;-75
2022/01/12 10:09:15;;;;;;;;;18.00;17.67;;;;;20.01;37.33;102087.44;5098810;27;45679;-75
2022/01/12 10:11:52;;;;;;;;;22.67;20.33;;;;;20.12;38.07;102063.72;5116109;27;45646;-74
2022/01/12 10:14:18;;;;;;;;;19.67;17.67;;;;;20.53;37.18;102081.09;5100225;27;45414;-75
2022/01/12 10:16:56;;;;;;;;;19.33;17.67;;;;;20.70;36.34;102070.75;5108963;27;45383;-75
2022/01/12 10:19:30;;;;;;;;;18.00;17.67;;;;;20.72;37.33;102072.53;5116293;27;45376;-76
2022/01/12 10:21:58;;;;;;;;;25.00;24.00;;;;;20.80;36.66;102069.97;5113826;27;45273;-74
2022/01/12 10:24:25;;;;;;;;;17.67;17.67;;;;;20.97;36.32;102072.81;5111189;27;44798;-75
2022/01/12 10:26:53;;;;;;;;;19.67;17.33;;;;;21.10;36.64;102074.75;5108919;27;45272;-74
2022/01/12 10:29:29;;;;;;;;;18.00;17.00;;;;;21.12;36.94;102067.69;5100429;27;45244;-74
2022/01/12 10:31:58;;;;;;;;;19.00;18.33;;;;;21.27;36.12;102077.59;5099772;27;46235;-74
2022/01/12 10:34:38;;;;;;;;;32.00;29.00;;;;;21.01;36.66;102051.63;5099316;27;45436;-74
2022/01/12 10:37:19;;;;;;;;;22.67;18.33;;;;;21.10;36.67;102069.44;5098887;27;45379;-77
2022/01/12 10:39:48;;;;;;;;;17.67;16.00;;;;;20.81;37.01;102002.69;5098734;27;45396;-75
2022/01/12 10:42:17;;;;;;;;;16.67;16.33;;;;;21.09;37.15;102061.44;5099701;27;46378;-75
2022/01/12 10:44:52;;;;;;;;;16.67;15.67;;;;;20.92;36.52;102035.59;5098383;27;45441;-77
2022/01/12 10:47:24;;;;;;;;;19.67;19.00;;;;;20.96;37.00;102053.34;5098625;27;45538;-78
2022/01/12 10:49:55;;;;;;;;;15.33;14.33;;;;;20.14;37.78;102051.38;5099742;27;45317;-76
2022/01/12 10:52:29;;;;;;;;;16.00;15.33;;;;;18.80;40.17;102059.66;5099361;27;45421;-79
2022/01/12 10:54:58;;;;;;;;;20.33;19.67;;;;;16.52;42.91;102074.09;5099580;27;45790;-76
2022/01/12 10:57:58;;;;;;;;;17.33;16.00;;;;;16.73;42.82;102076.44;5098392;27;45293;-77
2022/01/12 11:00:26;;;;;;;;;18.67;17.67;;;;;17.74;40.46;102057.19;5084493;27;45975;-75
2022/01/12 11:02:58;;;;;;;;;18.67;16.33;;;;;18.35;37.35;102049.84;5097289;27;45451;-75
2022/01/12 11:05:28;;;;;;;;;17.33;16.00;;;;;18.62;38.48;102045.97;5097031;27;45794;-86
2022/01/12 11:07:54;;;;;;;;;43.25;36.25;;;;;18.46;36.93;102063.28;5099283;27;45322;-89
2022/01/12 11:10:21;;;;;;;;;59.00;45.50;;;;;18.24;38.10;102038.09;5101003;27;45330;-88
2022/01/12 11:12:49;;;;;;;;;21.33;17.00;;;;;18.40;38.20;102058.78;5098205;27;47970;-77
2022/01/12 11:15:20;;;;;;;;;25.50;21.25;;;;;18.08;39.21;102068.59;5105292;27;45558;-79
2022/01/12 11:17:48;;;;;;;;;16.00;15.00;;;;;17.33;39.48;102079.91;5109505;27;45475;-78
2022/01/12 11:20:18;;;;;;;;;16.00;15.00;;;;;16.23;41.51;102079.34;5102819;27;45323;-77
2022/01/12 11:22:44;;;;;;;;;15.67;15.67;;;;;15.45;43.43;102088.19;5098907;27;45569;-84
2022/01/12 11:25:23;;;;;;;;;20.00;18.00;;;;;14.86;45.55;102095.75;5099919;27;45518;-87
2022/01/12 11:28:10;;;;;;;;;15.50;13.50;;;;;14.53;46.43;102093.59;5098555;27;45319;-83
2022/01/12 11:30:42;;;;;;;;;19.75;16.50;;;;;13.98;46.11;102075.63;5099873;27;45492;-89
2022/01/12 11:33:10;;;;;;;;;22.75;20.00;;;;;14.07;47.80;102090.91;5099443;27;46151;-88
2022/01/12 11:35:40;;;;;;;;;19.50;17.50;;;;;14.26;48.36;102093.41;5115561;27;45441;-81
2022/01/12 11:38:18;;;;;;;;;17.00;16.25;;;;;14.39;47.78;102080.75;5098354;27;45294;-89
2022/01/12 11:40:45;;;;;;;;;23.00;19.50;;;;;14.10;48.42;102059.47;5099882;27;45254;-88
2022/01/12 11:43:29;;;;;;;;;22.50;20.75;;;;;13.89;48.92;102085.78;5099128;27;46158;-82
2022/01/12 11:46:10;;;;;;;;;27.50;24.75;;;;;13.91;49.04;102084.13;5097786;27;45452;-88
2022/01/12 11:48:42;;;;;;;;;22.00;20.50;;;;;14.05;49.85;102088.19;5098743;27;45438;-79
2022/01/12 11:51:07;;;;;;;;;23.00;23.00;;;;;14.20;48.78;102056.34;5099604;27;45351;-82
2022/01/12 11:53:52;;;;;;;;;21.75;19.25;;;;;14.36;47.56;102068.38;5098188;27;45412;-78
2022/01/12 11:56:26;;;;;;;;;19.00;16.75;;;;;14.63;48.68;102078.22;5099431;27;45479;-77
2022/01/12 11:58:56;;;;;;;;;15.50;15.25;;;;;14.67;46.95;102065.22;5107887;27;45318;-79
2022/01/12 12:01:24;;;;;;;;;23.75;20.00;;;;;14.41;47.41;102035.28;5110205;27;45278;-79
2022/01/12 12:04:01;;;;;;;;;22.00;21.00;;;;;14.70;47.08;102049.56;5102146;27;46362;-82
2022/01/12 12:06:28;;;;;;;;;19.25;18.00;;;;;14.75;46.89;102048.84;5098794;27;45468;-85
2022/01/12 12:09:03;;;;;;;;;23.00;18.67;;;;;14.82;47.34;102043.84;5098853;27;45421;-76
2022/01/12 12:11:31;;;;;;;;;21.67;17.00;;;;;15.04;47.46;102032.38;5098429;27;45812;-75
2022/01/12 12:14:08;;;;;;;;;17.00;16.00;;;;;14.99;44.68;102027.78;5101996;27;46565;-77
2022/01/12 12:16:36;;;;;;;;;21.25;20.50;;;;;14.87;46.81;102038.75;5098584;27;45474;-86
2022/01/12 12:19:04;;;;;;;;;16.33;14.67;;;;;14.45;45.58;102020.53;5098686;27;45481;-79
2022/01/12 12:21:32;;;;;;;;;15.75;14.75;;;;;14.02;47.01;102018.84;5099115;27;45479;-79
2022/01/12 12:24:16;;;;;;;;;23.25;22.00;;;;;13.67;48.10;102018.34;5097630;27;45464;-86
2022/01/12 12:26:51;;;;;;;;;16.67;14.67;;;;;13.39;48.00;102011.97;5096149;27;45445;-87
2022/01/12 12:29:25;;;;;;;;;19.75;17.00;;;;;13.41;48.77;102012.00;5096618;27;45397;-77
2022/01/12 12:31:51;;;;;;;;;22.25;20.50;;;;;13.46;48.19;102013.09;5097382;27;45366;-76
2022/01/12 12:34:17;;;;;;;;;26.00;23.00;;;;;13.56;48.34;102017.00;5101473;27;46277;-80
2022/01/12 12:36:43;;;;;;;;;17.00;16.33;;;;;13.28;48.13;101994.81;5098199;27;45466;-87
2022/01/12 12:39:12;;;;;;;;;16.67;14.00;;;;;13.08;48.69;102022.84;5098266;27;45499;-86
2022/01/12 12:41:42;;;;;;;;;18.25;15.75;;;;;12.88;49.97;102025.47;5098417;27;45511;-84